Time;durP1;ratioP1;P1;durP2;ratioP2;P2;SDS_P1;SDS_P2;PMS_P1;PMS_P2;Temp;Humidity;BMP_temperature;BMP_pressure;BME280_temperature;BME280_humidity;BME280_pressure;Samples;Min_cycle;Max_cycle;Signal;HPM_P1;HPM_P2
2024/01/07 00:02:24;;;;;;;10.83;2.93;;;;;;;14.81;85.17;97775.41;6156177;23;20182;-86
2024/01/07 00:04:50;;;;;;;9.40;3.43;;;;;;;14.82;85.53;97787.66;6156730;23;20232;-86
2024/01/07 00:07:15;;;;;;;13.17;5.10;;;;;;;14.71;85.96;97790.41;6156723;23;20147;-85
2024/01/07 00:09:41;;;;;;;13.43;4.37;;;;;;;14.50;87.27;97792.34;6154895;23;20159;-87
2024/01/07 00:12:06;;;;;;;10.10;3.73;;;;;;;14.41;88.38;97791.34;6156343;23;20224;-86
2024/01/07 00:14:32;;;;;;;10.43;4.20;;;;;;;14.38;89.49;97762.66;6156306;23;20225;-87
2024/01/07 00:16:58;;;;;;;6.87;2.77;;;;;;;14.65;87.70;97780.41;6156227;23;20150;-85
2024/01/07 00:19:23;;;;;;;7.83;2.40;;;;;;;14.66;88.07;97779.44;6156202;23;20170;-85
2024/01/07 00:21:49;;;;;;;7.57;1.43;;;;;;;14.84;86.96;97784.84;6156467;23;20667;-87
2024/01/07 00:24:15;;;;;;;12.30;3.37;;;;;;;14.75;88.23;97808.44;6156086;23;20150;-86
2024/01/07 00:26:41;;;;;;;7.37;2.50;;;;;;;15.02;87.53;97796.34;6154922;23;20220;-86
2024/01/07 00:29:06;;;;;;;7.87;3.17;;;;;;;15.21;86.37;97797.19;6156477;23;20237;-86
2024/01/07 00:31:31;;;;;;;6.20;2.60;;;;;;;15.28;86.17;97789.50;6156022;23;20218;-86
2024/01/07 00:33:57;;;;;;;6.83;2.50;;;;;;;15.09;88.01;97777.22;6156494;23;20151;-86
2024/01/07 00:36:22;;;;;;;8.40;2.10;;;;;;;14.81;89.95;97771.94;6155898;23;20157;-85
2024/01/07 00:38:48;;;;;;;7.87;3.03;;;;;;;14.86;90.44;97773.19;6156410;23;20603;-86
2024/01/07 00:41:13;;;;;;;8.97;3.70;;;;;;;14.92;90.09;97762.09;6156442;23;20212;-86
2024/01/07 00:43:39;;;;;;;6.30;2.97;;;;;;;14.82;92.08;97763.06;6130321;23;20159;-86
2024/01/07 00:46:04;;;;;;;9.43;3.20;;;;;;;14.66;92.64;97756.56;6156288;23;20151;-86
2024/01/07 00:48:30;;;;;;;7.50;2.93;;;;;;;14.82;92.49;97744.59;6130225;23;20579;-86
2024/01/07 00:50:55;;;;;;;6.00;2.57;;;;;;;14.98;90.81;97732.50;6156325;23;20147;-87
2024/01/07 00:53:21;;;;;;;9.33;3.13;;;;;;;14.92;91.23;97735.69;6154756;23;20166;-87
2024/01/07 00:55:46;;;;;;;8.23;3.10;;;;;;;14.84;92.38;97735.56;6155934;23;20158;-86
2024/01/07 00:58:11;;;;;;;10.73;3.33;;;;;;;14.99;91.48;97713.03;6155752;23;20147;-86
2024/01/07 01:00:37;;;;;;;10.53;3.47;;;;;;;15.09;90.87;97705.97;6155697;23;20568;-87
2024/01/07 01:03:02;;;;;;;9.07;2.90;;;;;;;15.31;89.82;97681.84;6156122;23;20152;-87
2024/01/07 01:05:28;;;;;;;6.43;3.70;;;;;;;15.15;89.49;97673.69;6156234;23;20167;-87
2024/01/07 01:07:53;;;;;;;10.33;3.10;;;;;;;14.97;90.47;97693.88;6155932;23;20222;-86
2024/01/07 01:10:19;;;;;;;10.03;2.97;;;;;;;15.20;89.64;97711.03;6155750;23;20150;-86
2024/01/07 01:12:45;;;;;;;8.27;3.60;;;;;;;15.20;88.57;97731.31;6154683;23;20151;-86
2024/01/07 01:15:10;;;;;;;9.70;4.07;;;;;;;15.29;89.08;97698.78;6155684;23;20162;-87
2024/01/07 01:17:36;;;;;;;9.00;4.00;;;;;;;15.39;87.89;97676.66;6155696;23;20607;-87
2024/01/07 01:20:02;;;;;;;9.97;3.30;;;;;;;15.40;86.99;97645.81;6156586;23;20135;-87
2024/01/07 01:22:28;;;;;;;7.40;3.90;;;;;;;14.89;89.52;97656.84;6129670;23;20197;-88
2024/01/07 01:24:53;;;;;;;11.10;4.40;;;;;;;14.81;89.40;97676.97;6130173;23;20485;-88
2024/01/07 01:27:19;;;;;;;9.07;4.07;;;;;;;14.91;89.74;97665.44;6155750;23;20474;-87
2024/01/07 01:29:44;;;;;;;5.53;2.60;;;;;;;14.89;89.52;97632.25;6155653;23;20294;-88
2024/01/07 01:32:10;;;;;;;5.37;1.53;;;;;;;14.54;89.58;97632.94;6155779;23;20157;-88
2024/01/07 01:34:36;;;;;;;5.73;2.30;;;;;;;14.47;91.53;97610.72;6156299;23;20153;-87
2024/01/07 01:37:02;;;;;;;8.03;2.97;;;;;;;14.68;90.88;97617.47;6156064;23;20501;-87
2024/01/07 01:39:29;;;;;;;8.13;2.80;;;;;;;14.74;89.80;97613.44;6154570;23;20205;-87
2024/01/07 01:41:54;;;;;;;14.00;4.53;;;;;;;14.52;90.31;97609.31;6129781;23;20274;-87
2024/01/07 01:44:20;;;;;;;7.70;2.80;;;;;;;14.51;90.56;97606.84;6155633;23;20174;-87
2024/01/07 01:46:47;;;;;;;10.33;3.90;;;;;;;14.83;89.90;97599.41;6155932;23;20451;-87
2024/01/07 01:49:13;;;;;;;16.00;4.40;;;;;;;14.78;89.22;97585.78;6129962;23;20524;-87
2024/01/07 01:51:38;;;;;;;8.80;3.90;;;;;;;14.63;90.29;97579.31;6155335;23;20157;-87
2024/01/07 01:54:04;;;;;;;7.70;3.80;;;;;;;14.70;90.01;97559.31;6156318;23;20244;-88
2024/01/07 01:56:30;;;;;;;10.83;4.20;;;;;;;14.81;88.76;97561.75;6129831;23;20165;-87
2024/01/07 01:58:56;;;;;;;8.20;3.53;;;;;;;14.63;89.45;97559.06;6155633;23;20231;-87
2024/01/07 02:01:23;;;;;;;9.17;3.83;;;;;;;14.84;89.02;97572.03;6155355;23;20496;-87
2024/01/07 02:03:48;;;;;;;8.83;3.60;;;;;;;14.82;87.88;97563.44;6155529;23;20153;-87
2024/01/07 02:06:15;;;;;;;14.40;4.03;;;;;;;14.82;87.65;97546.78;6129778;23;20160;-87
2024/01/07 02:08:41;;;;;;;10.40;4.33;;;;;;;14.89;86.68;97546.03;6129911;23;20178;-87
2024/01/07 02:11:20;;;;;;;9.60;3.60;;;;;;;15.10;85.84;97557.19;6155905;23;20168;-86
2024/01/07 02:13:45;;;;;;;8.53;4.23;;;;;;;15.19;84.90;97552.84;6155106;23;20173;-86
2024/01/07 02:16:12;;;;;;;9.27;3.80;;;;;;;15.17;84.31;97529.22;6155876;23;20228;-87
2024/01/07 02:18:42;;;;;;;9.50;3.90;;;;;;;15.10;84.78;97509.69;6155463;23;20166;-86
2024/01/07 02:21:08;;;;;;;9.23;3.67;;;;;;;14.76;86.60;97505.97;6155371;23;20263;-88
2024/01/07 02:23:34;;;;;;;11.93;3.07;;;;;;;14.68;87.15;97479.50;6155923;23;20151;-87
2024/01/07 02:25:59;;;;;;;16.83;4.27;;;;;;;14.28;88.73;97458.69;6156471;23;20213;-87
2024/01/07 02:28:25;;;;;;;7.03;3.20;;;;;;;14.42;89.48;97438.97;6157251;23;20469;-88
2024/01/07 02:30:50;;;;;;;7.93;3.37;;;;;;;14.19;89.03;97433.22;6157387;23;20497;-87
2024/01/07 02:33:16;;;;;;;12.10;3.40;;;;;;;14.44;87.70;97426.50;6157229;23;20162;-87
2024/01/07 02:35:41;;;;;;;16.50;5.23;;;;;;;14.19;88.80;97401.59;6157273;23;20152;-87
2024/01/07 02:38:07;;;;;;;9.60;3.30;;;;;;;14.33;87.85;97393.25;6157237;23;20153;-88
2024/01/07 02:40:32;;;;;;;10.67;2.80;;;;;;;13.99;89.49;97381.59;6157181;23;20230;-87
2024/01/07 02:42:58;;;;;;;8.60;2.90;;;;;;;14.28;87.30;97402.53;6156989;23;20152;-87
2024/01/07 02:45:24;;;;;;;5.47;2.70;;;;;;;14.18;88.02;97388.59;6157275;23;20645;-87
2024/01/07 02:47:49;;;;;;;7.83;2.60;;;;;;;14.30;87.58;97387.41;6157725;23;20161;-86
2024/01/07 02:50:16;;;;;;;6.87;2.67;;;;;;;14.26;89.14;97389.50;6157087;23;20233;-87
2024/01/07 02:52:41;;;;;;;7.10;3.57;;;;;;;14.55;87.61;97376.19;6157110;23;20584;-87
2024/01/07 02:55:08;;;;;;;8.77;3.07;;;;;;;14.83;86.05;97362.00;6156960;23;20242;-87
2024/01/07 02:57:33;;;;;;;9.77;2.33;;;;;;;15.09;84.45;97348.88;6157129;23;20641;-87
2024/01/07 02:59:59;;;;;;;12.50;2.87;;;;;;;15.26;83.60;97354.13;6156858;23;20150;-87
2024/01/07 03:02:24;;;;;;;7.97;3.07;;;;;;;15.38;82.50;97357.38;6157310;23;20667;-87
2024/01/07 03:04:50;;;;;;;4.50;2.40;;;;;;;15.32;82.30;97344.78;6157049;23;20165;-86
2024/01/07 03:07:15;;;;;;;9.47;2.37;;;;;;;15.33;82.46;97344.63;6156869;23;20229;-87
2024/01/07 03:09:41;;;;;;;14.00;3.00;;;;;;;15.16;83.22;97345.47;6156992;23;20154;-87
2024/01/07 03:12:06;;;;;;;5.23;2.57;;;;;;;14.91;85.12;97350.69;6157616;23;20182;-84
2024/01/07 03:14:32;;;;;;;4.50;2.33;;;;;;;14.56;88.60;97348.88;6156981;23;20257;-87
2024/01/07 03:16:57;;;;;;;5.90;2.50;;;;;;;14.86;87.47;97384.63;6157222;23;20523;-87
2024/01/07 03:19:22;;;;;;;6.97;2.20;;;;;;;15.07;86.34;97372.78;6157140;23;20173;-87
2024/01/07 03:21:48;;;;;;;8.83;2.73;;;;;;;15.06;86.32;97372.94;6157055;23;20189;-87
2024/01/07 03:24:14;;;;;;;6.70;2.33;;;;;;;14.94;87.06;97377.59;6157485;23;20152;-87
2024/01/07 03:26:39;;;;;;;5.33;1.67;;;;;;;15.12;86.25;97370.50;6156743;23;20638;-87
2024/01/07 03:29:05;;;;;;;4.67;2.03;;;;;;;15.25;85.18;97354.31;6157222;23;20185;-87
2024/01/07 03:31:30;;;;;;;7.63;1.83;;;;;;;14.92;86.52;97363.72;6156638;23;20150;-86
2024/01/07 03:33:56;;;;;;;5.87;1.77;;;;;;;14.65;88.49;97367.25;6156666;23;20592;-86
2024/01/07 03:36:21;;;;;;;6.07;1.53;;;;;;;14.52;90.31;97364.13;6156519;23;20202;-85
2024/01/07 03:38:47;;;;;;;4.27;1.40;;;;;;;14.50;89.36;97352.09;6155458;23;20193;-84
2024/01/07 03:41:19;;;;;;;8.13;0.70;;;;;;;14.18;86.26;97356.97;6156443;23;20198;-87
2024/01/07 03:43:49;;;;;;;1.60;0.40;;;;;;;14.01;84.52;97366.47;6156781;23;20660;-85
2024/01/07 03:46:15;;;;;;;4.63;0.40;;;;;;;14.00;82.37;97364.78;6156481;23;20576;-89
2024/01/07 03:48:44;;;;;;;2.83;0.77;;;;;;;14.04;82.87;97382.81;6131303;23;20526;-85
2024/01/07 03:51:09;;;;;;;0.70;0.40;;;;;;;13.84;82.19;97388.25;6156606;23;20488;-87
2024/01/07 03:53:38;;;;;;;2.23;0.30;;;;;;;13.51;80.94;97393.06;6130644;23;20164;-88
2024/01/07 03:56:03;;;;;;;1.13;0.40;;;;;;;13.37;82.32;97382.13;6156441;23;20171;-86
2024/01/07 03:58:29;;;;;;;1.13;0.17;;;;;;;13.32;82.21;97358.03;6156885;23;20681;-85
2024/01/07 04:00:54;;;;;;;1.40;0.20;;;;;;;13.29;82.91;97342.53;6156241;23;20619;-85
2024/01/07 04:03:20;;;;;;;2.87;0.80;;;;;;;13.48;80.92;97342.50;6155675;23;20159;-85
2024/01/07 04:05:45;;;;;;;0.40;0.10;;;;;;;13.70;80.29;97346.63;6156499;23;20152;-84
2024/01/07 04:08:12;;;;;;;0.20;0.20;;;;;;;13.57;80.36;97357.47;6156492;23;20181;-84
2024/01/07 04:10:37;;;;;;;0.77;0.37;;;;;;;13.68;80.21;97359.91;6156405;23;20169;-85
2024/01/07 04:13:04;;;;;;;5.60;0.73;;;;;;;13.49;79.88;97381.03;6156226;23;20651;-84
2024/01/07 04:15:30;;;;;;;3.60;0.60;;;;;;;13.48;79.91;97384.63;6156459;23;20156;-84
2024/01/07 04:17:55;;;;;;;5.43;0.67;;;;;;;13.57;79.12;97396.94;6156130;23;20314;-83
2024/01/07 04:20:21;;;;;;;1.33;0.30;;;;;;;13.57;78.42;97384.59;6155255;23;20143;-83
2024/01/07 04:22:47;;;;;;;3.27;0.33;;;;;;;13.35;78.32;97398.06;6155097;23;20190;-83
2024/01/07 04:25:13;;;;;;;1.43;0.30;;;;;;;13.22;78.81;97375.66;6130501;23;20568;-82
2024/01/07 04:27:38;;;;;;;6.90;2.07;;;;;;;13.20;78.69;97365.28;6156609;23;20148;-82
2024/01/07 04:30:05;;;;;;;0.93;0.43;;;;;;;13.14;77.97;97365.81;6130442;23;20166;-82
2024/01/07 04:32:31;;;;;;;1.90;0.50;;;;;;;13.06;78.31;97372.72;6156218;23;20147;-83
2024/01/07 04:34:57;;;;;;;2.07;0.80;;;;;;;12.91;78.33;97375.78;6154970;23;20253;-82
2024/01/07 04:37:23;;;;;;;7.80;1.27;;;;;;;12.95;77.51;97382.41;6156565;23;20160;-84
2024/01/07 04:39:49;;;;;;;2.40;0.30;;;;;;;12.73;77.83;97371.31;6156529;23;20158;-84
2024/01/07 04:42:15;;;;;;;0.27;0.20;;;;;;;12.58;78.29;97362.19;6130620;23;20183;-83
2024/01/07 04:44:40;;;;;;;1.23;0.37;;;;;;;12.49;78.25;97353.31;6130252;23;20159;-83
2024/01/07 04:47:24;;;;;;;2.63;0.60;;;;;;;12.51;78.31;97342.66;6130282;23;20574;-82
2024/01/07 04:49:50;;;;;;;2.93;0.63;;;;;;;12.58;77.88;97333.28;6156139;23;20147;-84
2024/01/07 04:52:15;;;;;;;0.60;0.30;;;;;;;12.58;77.19;97315.69;6156052;23;20166;-83
2024/01/07 04:54:41;;;;;;;1.13;0.50;;;;;;;12.63;76.68;97318.72;6154541;23;20159;-84
2024/01/07 04:57:06;;;;;;;3.97;0.37;;;;;;;12.59;76.80;97325.25;6130657;23;20591;-83
2024/01/07 04:59:31;;;;;;;3.53;0.67;;;;;;;12.54;77.05;97337.97;6156745;23;20150;-82
2024/01/07 05:01:57;;;;;;;2.00;0.30;;;;;;;12.61;76.26;97332.97;6155841;23;20179;-82
2024/01/07 05:04:22;;;;;;;0.17;0.17;;;;;;;12.62;76.12;97332.03;6156260;23;20568;-84
2024/01/07 05:06:48;;;;;;;1.17;0.50;;;;;;;12.69;76.05;97323.44;6154989;23;20234;-82
2024/01/07 05:09:13;;;;;;;0.97;0.40;;;;;;;12.70;75.42;97337.44;6154794;23;20155;-83
2024/01/07 05:11:41;;;;;;;3.43;0.73;;;;;;;12.58;74.53;97360.38;6156168;23;20147;-83
2024/01/07 05:14:07;;;;;;;0.67;0.20;;;;;;;12.58;74.45;97370.88;6130674;23;20238;-86
2024/01/07 05:16:32;;;;;;;2.70;0.60;;;;;;;12.64;74.82;97370.34;6155795;23;20535;-83
2024/01/07 05:18:58;;;;;;;2.83;0.27;;;;;;;12.77;74.75;97372.69;6155892;23;20241;-82
2024/01/07 05:21:23;;;;;;;4.23;0.90;;;;;;;12.82;74.41;97381.84;6154487;23;20253;-83
2024/01/07 05:23:48;;;;;;;3.37;1.00;;;;;;;12.89;73.96;97379.50;6130177;23;20158;-82
2024/01/07 05:26:14;;;;;;;0.30;0.20;;;;;;;12.94;72.57;97386.00;6155872;23;20147;-83
2024/01/07 05:28:39;;;;;;;2.40;0.30;;;;;;;12.95;73.61;97413.97;6155564;23;20151;-82
2024/01/07 05:31:04;;;;;;;2.40;0.70;;;;;;;13.22;72.48;97405.44;6155854;23;20527;-82
2024/01/07 05:33:30;;;;;;;1.67;0.40;;;;;;;13.47;71.74;97407.47;6155752;23;20151;-82
2024/01/07 05:35:55;;;;;;;2.27;0.60;;;;;;;13.77;70.66;97409.09;6155805;23;20182;-82
2024/01/07 05:38:21;;;;;;;0.77;0.30;;;;;;;13.86;69.62;97425.84;6155679;23;20190;-82
2024/01/07 05:40:46;;;;;;;3.57;0.50;;;;;;;13.80;69.41;97411.44;6155694;23;20151;-83
2024/01/07 05:43:11;;;;;;;2.07;0.30;;;;;;;13.80;69.42;97403.53;6155900;23;20163;-83
2024/01/07 05:45:37;;;;;;;1.57;0.20;;;;;;;13.85;68.93;97403.94;6154487;23;20579;-83
2024/01/07 05:48:02;;;;;;;0.77;0.27;;;;;;;13.57;69.60;97402.22;6156115;23;20218;-83
2024/01/07 05:50:28;;;;;;;0.93;0.20;;;;;;;13.61;69.84;97389.56;6155450;23;20221;-83
2024/01/07 05:52:53;;;;;;;1.57;0.53;;;;;;;13.54;69.59;97390.16;6155747;23;20148;-82
2024/01/07 05:55:19;;;;;;;1.90;0.40;;;;;;;13.39;70.19;97385.47;6155629;23;20151;-82
2024/01/07 05:57:44;;;;;;;0.93;0.40;;;;;;;13.18;71.05;97377.72;6156292;23;20190;-83
2024/01/07 06:00:10;;;;;;;0.83;0.60;;;;;;;13.05;71.14;97381.59;6155307;23;20655;-83
2024/01/07 06:02:36;;;;;;;6.33;0.77;;;;;;;13.03;71.93;97391.41;6156327;23;20197;-83
2024/01/07 06:05:02;;;;;;;2.83;0.47;;;;;;;13.12;71.31;97382.72;6157658;23;20170;-83
2024/01/07 06:07:28;;;;;;;1.90;0.67;;;;;;;13.25;70.95;97386.72;6157595;23;20162;-83
2024/01/07 06:09:54;;;;;;;3.70;0.50;;;;;;;13.45;70.32;97380.47;6131905;23;20155;-82
2024/01/07 06:12:19;;;;;;;1.63;0.50;;;;;;;13.46;69.60;97376.03;6157580;23;20147;-83
2024/01/07 06:14:44;;;;;;;2.47;0.83;;;;;;;13.34;70.19;97369.25;6157557;23;20175;-83
2024/01/07 06:17:10;;;;;;;4.50;0.70;;;;;;;13.26;70.33;97369.97;6157546;23;20153;-82
2024/01/07 06:19:35;;;;;;;2.10;0.40;;;;;;;13.28;70.43;97372.47;6157761;23;20229;-82
2024/01/07 06:22:01;;;;;;;2.53;0.50;;;;;;;13.21;70.44;97387.13;6157303;23;20638;-82
2024/01/07 06:24:26;;;;;;;2.30;1.00;;;;;;;13.33;70.97;97393.94;6157479;23;20162;-82
2024/01/07 06:26:52;;;;;;;4.00;0.60;;;;;;;13.51;70.25;97382.53;6157365;23;20154;-82
2024/01/07 06:29:18;;;;;;;4.27;0.60;;;;;;;13.54;69.83;97389.34;6131644;23;20162;-82
2024/01/07 06:31:45;;;;;;;20.90;8.13;;;;;;;13.57;69.99;97399.56;6157406;23;20151;-82
2024/01/07 06:34:13;;;;;;;4.63;1.63;;;;;;;13.47;70.43;97406.63;6157717;23;20155;-82
2024/01/07 06:36:39;;;;;;;5.13;1.60;;;;;;;13.50;70.75;97388.78;6157332;23;20174;-82
2024/01/07 06:39:05;;;;;;;9.60;2.80;;;;;;;13.64;70.90;97382.25;6155996;23;20155;-82
2024/01/07 06:41:30;;;;;;;7.63;2.10;;;;;;;13.75;70.39;97387.34;6157018;23;20203;-82
2024/01/07 06:43:56;;;;;;;7.50;1.67;;;;;;;14.37;69.21;97394.63;6158050;23;20465;-82
2024/01/07 06:46:22;;;;;;;7.47;1.87;;;;;;;15.05;66.24;97398.47;6157072;23;20147;-82
2024/01/07 06:48:48;;;;;;;2.60;1.27;;;;;;;15.60;64.18;97391.22;6157598;23;20162;-83
2024/01/07 06:51:15;;;;;;;6.47;2.03;;;;;;;15.81;62.84;97398.78;6155324;23;20183;-83
2024/01/07 06:53:40;;;;;;;6.43;1.97;;;;;;;15.97;61.94;97383.03;6155820;23;20156;-83
2024/01/07 06:56:06;;;;;;;5.70;1.63;;;;;;;15.76;62.86;97385.22;6156739;23;20219;-83
2024/01/07 06:58:32;;;;;;;5.10;1.43;;;;;;;15.75;62.63;97384.38;6130486;23;20553;-82
2024/01/07 07:00:58;;;;;;;4.63;1.20;;;;;;;15.64;63.25;97386.47;6156634;23;20264;-83
2024/01/07 07:03:23;;;;;;;10.10;1.00;;;;;;;16.04;62.89;97392.00;6156507;23;20591;-83
2024/01/07 07:05:48;;;;;;;4.47;1.47;;;;;;;15.99;62.46;97383.72;6156196;23;20217;-83
2024/01/07 07:08:14;;;;;;;5.53;2.20;;;;;;;15.65;63.12;97386.31;6130994;23;20606;-83
2024/01/07 07:10:39;;;;;;;6.87;1.77;;;;;;;15.44;64.33;97390.22;6156277;23;20491;-82
2024/01/07 07:13:05;;;;;;;5.27;1.60;;;;;;;15.27;64.87;97373.44;6155797;23;20587;-84
2024/01/07 07:15:30;;;;;;;7.60;1.33;;;;;;;15.50;64.64;97371.16;6156551;23;20186;-83
2024/01/07 07:17:57;;;;;;;11.07;1.80;;;;;;;15.80;63.34;97354.88;6156001;23;20236;-83
2024/01/07 07:20:22;;;;;;;6.90;1.37;;;;;;;16.14;62.01;97347.75;6154829;23;20148;-83
2024/01/07 07:22:47;;;;;;;6.07;1.37;;;;;;;16.27;61.54;97342.88;6130330;23;20189;-84
2024/01/07 07:25:13;;;;;;;3.57;1.27;;;;;;;16.33;60.71;97346.69;6155026;23;20151;-83
2024/01/07 07:27:38;;;;;;;7.47;2.13;;;;;;;15.95;62.77;97350.66;6130059;23;20151;-83
2024/01/07 07:30:06;;;;;;;7.80;2.00;;;;;;;15.70;63.76;97354.13;6130535;23;20159;-84
2024/01/07 07:32:31;;;;;;;4.63;1.40;;;;;;;15.66;64.42;97350.16;6130617;23;20476;-83
2024/01/07 07:34:57;;;;;;;8.53;2.03;;;;;;;15.61;64.29;97344.53;6156543;23;20183;-83
2024/01/07 07:37:22;;;;;;;9.03;1.57;;;;;;;15.27;66.04;97342.63;6155370;23;20500;-83
2024/01/07 07:39:49;;;;;;;8.00;1.63;;;;;;;15.27;66.65;97347.88;6130371;23;20162;-83
2024/01/07 07:42:15;;;;;;;10.23;1.67;;;;;;;15.04;68.51;97353.78;6156133;23;20588;-83
2024/01/07 07:44:40;;;;;;;6.63;1.87;;;;;;;14.97;68.48;97356.19;6155750;23;20217;-83
2024/01/07 07:47:06;;;;;;;12.80;2.53;;;;;;;14.92;69.38;97347.91;6155994;23;20517;-83
2024/01/07 07:49:31;;;;;;;8.37;1.70;;;;;;;14.99;69.16;97356.06;6155858;23;20162;-83
2024/01/07 07:51:56;;;;;;;9.33;1.30;;;;;;;15.10;68.88;97355.81;6154313;23;20492;-84
2024/01/07 07:54:22;;;;;;;11.10;1.67;;;;;;;15.27;68.56;97354.97;6155146;23;20574;-84
2024/01/07 07:56:48;;;;;;;11.07;2.20;;;;;;;15.53;68.88;97361.13;6156068;23;20220;-83
2024/01/07 07:59:13;;;;;;;7.50;1.50;;;;;;;15.73;68.36;97359.94;6155653;23;20543;-84
2024/01/07 08:01:39;;;;;;;5.97;1.53;;;;;;;15.86;67.49;97356.88;6155846;23;20190;-83
2024/01/07 08:04:05;;;;;;;9.83;1.60;;;;;;;15.95;66.67;97353.31;6156239;23;20205;-84
2024/01/07 08:06:31;;;;;;;8.77;2.17;;;;;;;16.11;66.20;97353.41;6154264;23;20155;-84
2024/01/07 08:08:56;;;;;;;4.13;0.90;;;;;;;16.17;64.70;97362.50;6155860;23;20158;-84
2024/01/07 08:11:21;;;;;;;6.77;1.40;;;;;;;16.34;66.15;97364.22;6130328;23;20154;-83
2024/01/07 08:13:47;;;;;;;13.43;1.93;;;;;;;16.62;63.90;97362.19;6154217;23;20488;-83
2024/01/07 08:16:13;;;;;;;6.50;2.10;;;;;;;16.72;64.58;97357.59;6130247;23;20162;-83
2024/01/07 08:18:38;;;;;;;8.90;1.13;;;;;;;17.04;63.97;97358.47;6155813;23;20583;-83
2024/01/07 08:21:04;;;;;;;10.07;1.97;;;;;;;17.04;63.60;97357.63;6154030;23;20187;-84
2024/01/07 08:23:29;;;;;;;9.90;2.37;;;;;;;17.05;63.13;97360.13;6154366;23;20158;-83
2024/01/07 08:25:56;;;;;;;8.87;1.33;;;;;;;17.16;62.51;97345.75;6155676;23;20230;-84
2024/01/07 08:28:23;;;;;;;13.90;1.53;;;;;;;17.29;62.90;97339.97;6150498;23;20158;-84
2024/01/07 08:30:49;;;;;;;11.13;1.60;;;;;;;17.22;61.75;97339.78;6129445;23;20628;-84
2024/01/07 08:33:14;;;;;;;8.70;1.80;;;;;;;17.31;62.93;97333.50;6155323;23;20147;-83
2024/01/07 08:35:40;;;;;;;9.43;2.60;;;;;;;17.43;63.07;97326.84;6155052;23;20147;-84
2024/01/07 08:38:05;;;;;;;8.90;1.40;;;;;;;17.46;61.96;97331.81;6155190;23;20641;-83
2024/01/07 08:40:31;;;;;;;4.57;1.40;;;;;;;17.49;61.14;97334.16;6155001;23;20234;-83
2024/01/07 08:42:56;;;;;;;7.50;1.57;;;;;;;17.26;61.78;97335.00;6129765;23;20184;-85
2024/01/07 08:45:22;;;;;;;9.63;1.17;;;;;;;17.14;62.38;97343.25;6154617;23;20251;-84
2024/01/07 08:47:48;;;;;;;10.73;1.70;;;;;;;17.12;62.51;97331.19;6155487;23;20156;-85
2024/01/07 08:50:13;;;;;;;6.67;1.40;;;;;;;17.25;62.71;97334.16;6154923;23;20165;-84
2024/01/07 08:52:39;;;;;;;8.73;1.67;;;;;;;17.31;62.63;97328.19;6129775;23;20153;-86
2024/01/07 08:55:06;;;;;;;7.93;1.80;;;;;;;17.50;62.47;97317.28;6154050;23;20591;-84
2024/01/07 08:57:32;;;;;;;10.30;2.13;;;;;;;17.76;62.77;97315.25;6155170;23;20649;-85
2024/01/07 08:59:57;;;;;;;9.67;1.53;;;;;;;17.78;62.19;97312.44;6154254;23;20186;-85
2024/01/07 09:02:23;;;;;;;9.03;1.30;;;;;;;17.86;61.88;97317.72;6153409;23;20183;-84
2024/01/07 09:04:48;;;;;;;6.43;1.17;;;;;;;17.89;61.40;97317.38;6154540;23;20225;-84
2024/01/07 09:07:16;;;;;;;4.17;1.30;;;;;;;18.07;60.89;97317.13;6154958;23;20226;-85
2024/01/07 09:09:42;;;;;;;7.30;2.00;;;;;;;18.22;58.60;97310.94;6155115;23;20179;-86
2024/01/07 09:12:07;;;;;;;6.60;0.93;;;;;;;18.28;58.30;97310.25;6155137;23;20151;-87
2024/01/07 09:14:33;;;;;;;7.97;1.90;;;;;;;18.29;58.78;97313.75;6155052;23;20155;-84
2024/01/07 09:16:58;;;;;;;3.57;0.87;;;;;;;18.34;57.74;97304.25;6155110;23;20210;-84
2024/01/07 09:19:23;;;;;;;6.67;1.53;;;;;;;18.29;57.84;97297.84;6155202;23;20170;-86
2024/01/07 09:21:49;;;;;;;4.50;1.23;;;;;;;18.46;57.70;97303.88;6155183;23;20175;-85
2024/01/07 09:24:14;;;;;;;12.33;1.40;;;;;;;18.48;56.80;97297.41;6155067;23;20222;-86
2024/01/07 09:26:40;;;;;;;8.10;1.60;;;;;;;18.42;58.48;97290.13;6154991;23;20226;-85
2024/01/07 09:29:05;;;;;;;10.50;1.93;;;;;;;18.64;57.29;97275.25;6155023;23;20151;-87
2024/01/07 09:31:31;;;;;;;6.37;1.33;;;;;;;18.75;57.78;97275.69;6154983;23;20224;-86
2024/01/07 09:33:56;;;;;;;11.60;1.70;;;;;;;18.84;56.45;97255.22;6154116;23;20661;-86
2024/01/07 09:36:22;;;;;;;18.00;2.03;;;;;;;18.59;56.32;97267.84;6154796;23;20633;-85
2024/01/07 09:38:47;;;;;;;9.23;1.20;;;;;;;18.56;54.80;97265.53;6154394;23;20483;-86
2024/01/07 09:41:13;;;;;;;5.50;1.30;;;;;;;18.40;55.82;97268.25;6153850;23;20187;-86
2024/01/07 09:43:38;;;;;;;6.03;1.13;;;;;;;18.34;55.23;97280.38;6155389;23;20151;-86
2024/01/07 09:46:04;;;;;;;12.90;1.67;;;;;;;18.07;56.60;97272.06;6154371;23;20582;-87
2024/01/07 09:48:32;;;;;;;7.47;2.10;;;;;;;18.24;57.49;97253.25;6155283;23;20563;-89
2024/01/07 09:50:58;;;;;;;13.30;1.67;;;;;;;18.41;56.15;97254.00;6153925;23;20147;-86
2024/01/07 09:53:30;;;;;;;12.37;2.03;;;;;;;18.30;55.65;97251.72;6155894;23;20222;-87
2024/01/07 09:56:18;;;;;;;12.03;1.73;;;;;;;18.13;55.41;97255.47;6155877;23;20138;-88
2024/01/07 09:58:47;;;;;;;6.50;1.50;;;;;;;18.13;55.57;97276.69;6129716;23;20158;-88
2024/01/07 10:01:35;;;;;;;5.10;0.80;;;;;;;18.23;54.96;97270.19;6155595;23;20607;-90
2024/01/07 10:04:01;;;;;;;15.63;2.37;;;;;;;18.05;54.62;97264.31;6155427;23;20132;-88
2024/01/07 10:06:26;;;;;;;9.60;1.60;;;;;;;17.93;55.04;97257.72;6155111;23;20162;-86
2024/01/07 10:09:13;;;;;;;9.23;2.03;;;;;;;17.96;55.42;97248.59;6153491;23;20500;-89
2024/01/07 10:11:39;;;;;;;8.60;1.87;;;;;;;17.90;53.57;97244.78;6151524;23;20681;-87
2024/01/07 10:14:04;;;;;;;11.87;1.50;;;;;;;17.95;54.48;97229.19;6153589;23;20680;-87
2024/01/07 10:16:31;;;;;;;15.77;2.83;;;;;;;17.98;55.20;97222.72;6152096;23;20151;-87
2024/01/07 10:18:57;;;;;;;14.10;2.97;;;;;;;18.12;54.67;97209.56;6153432;23;20241;-87
2024/01/07 10:21:22;;;;;;;12.20;1.30;;;;;;;18.13;54.37;97203.25;6153270;23;20183;-89
2024/01/07 10:23:48;;;;;;;8.33;1.17;;;;;;;17.95;53.23;97213.28;6155196;23;20158;-86
2024/01/07 10:26:16;;;;;;;13.47;1.70;;;;;;;17.96;53.13;97216.78;6155457;23;20150;-87
2024/01/07 10:28:44;;;;;;;9.13;1.43;;;;;;;17.85;54.32;97209.19;6155611;23;20151;-88
2024/01/07 10:31:09;;;;;;;8.50;1.33;;;;;;;17.98;53.91;97205.00;6155366;23;20222;-88
2024/01/07 10:33:35;;;;;;;6.90;1.60;;;;;;;18.09;54.38;97190.53;6130715;23;20186;-85
2024/01/07 10:36:05;;;;;;;18.43;2.37;;;;;;;18.11;55.04;97177.91;6155632;23;20160;-87
2024/01/07 10:38:41;;;;;;;5.03;1.47;;;;;;;18.26;54.52;97173.53;6156153;23;20187;-88
2024/01/07 10:41:11;;;;;;;5.80;1.30;;;;;;;18.27;54.23;97168.03;6155334;23;20177;-88
2024/01/07 10:43:39;;;;;;;12.53;3.33;;;;;;;18.38;54.08;97161.50;6155765;23;20147;-87
2024/01/07 10:46:04;;;;;;;13.17;2.80;;;;;;;18.46;53.36;97160.63;6155172;23;20237;-87
2024/01/07 10:48:40;;;;;;;9.07;2.00;;;;;;;18.30;54.31;97146.47;6157779;23;20237;-91
2024/01/07 10:51:15;;;;;;;14.50;2.27;;;;;;;17.95;55.36;97136.44;6157832;23;20170;-88
2024/01/07 10:53:46;;;;;;;15.87;3.27;;;;;;;18.16;55.34;97135.81;6157497;23;20162;-89
2024/01/07 10:56:22;;;;;;;13.00;1.67;;;;;;;18.01;55.53;97130.44;6157370;23;20154;-89
2024/01/07 10:58:51;;;;;;;8.00;2.63;;;;;;;18.14;55.58;97130.69;6131165;23;20213;-88
2024/01/07 11:01:21;;;;;;;10.50;1.93;;;;;;;18.04;55.81;97131.91;6156967;23;20186;-87
2024/01/07 11:03:59;;;;;;;13.77;1.90;;;;;;;18.25;55.81;97129.44;6157488;23;20585;-86
2024/01/07 11:06:38;;;;;;;9.37;1.17;;;;;;;18.25;55.43;97121.50;6156189;23;20181;-89
2024/01/07 11:09:30;;;;;;;9.43;1.80;;;;;;;18.06;55.38;97129.91;6130396;23;20214;-88
2024/01/07 11:12:09;;;;;;;7.97;1.73;;;;;;;17.92;55.63;97122.72;6154451;23;20158;-88
2024/01/07 11:14:58;;;;;;;10.40;1.97;;;;;;;18.04;55.78;97121.31;6155577;23;20159;-89
2024/01/07 11:17:36;;;;;;;10.93;1.87;;;;;;;18.37;55.89;97112.09;6153346;23;20162;-89
2024/01/07 11:20:10;;;;;;;13.77;2.67;;;;;;;18.20;55.01;97108.75;6155920;23;20194;-88
2024/01/07 11:22:39;;;;;;;16.37;3.53;;;;;;;18.16;55.21;97101.34;6130480;23;20241;-90
2024/01/07 11:25:31;;;;;;;6.03;1.53;;;;;;;18.21;54.56;97109.59;6152740;23;20459;-87
2024/01/07 11:27:58;;;;;;;9.83;1.50;;;;;;;18.38;52.82;97111.09;6156530;23;20147;-87
2024/01/07 11:30:25;;;;;;;12.77;1.30;;;;;;;18.41;52.14;97106.28;6156221;23;20474;-87